sensor_id;sensor_type;location;lat;lon;timestamp;P1;durP1;ratioP1;P2;durP2;ratioP2
29688;SDS011;16600;47.444;8.334;2023-07-31T00:02:39;7.25;;;3.70;;
29688;SDS011;16600;47.444;8.334;2023-07-31T00:05:05;5.30;;;3.78;;
29688;SDS011;16600;47.444;8.334;2023-07-31T00:07:34;10.77;;;4.03;;
29688;SDS011;16600;47.444;8.334;2023-07-31T00:10:01;9.60;;;3.70;;
29688;SDS011;16600;47.444;8.334;2023-07-31T00:12:27;9.73;;;3.80;;
29688;SDS011;16600;47.444;8.334;2023-07-31T00:17:18;5.63;;;3.40;;
29688;SDS011;16600;47.444;8.334;2023-07-31T00:19:45;4.80;;;3.47;;
29688;SDS011;16600;47.444;8.334;2023-07-31T00:22:16;5.25;;;3.70;;
29688;SDS011;16600;47.444;8.334;2023-07-31T00:24:42;7.60;;;4.38;;
29688;SDS011;16600;47.444;8.334;2023-07-31T00:27:08;6.85;;;3.65;;
29688;SDS011;16600;47.444;8.334;2023-07-31T00:29:37;5.15;;;3.80;;
29688;SDS011;16600;47.444;8.334;2023-07-31T00:32:03;7.82;;;4.43;;
29688;SDS011;16600;47.444;8.334;2023-07-31T00:34:30;11.98;;;4.85;;
29688;SDS011;16600;47.444;8.334;2023-07-31T00:36:58;9.25;;;4.65;;
29688;SDS011;16600;47.444;8.334;2023-07-31T00:39:24;12.30;;;5.35;;
29688;SDS011;16600;47.444;8.334;2023-07-31T00:44:16;7.70;;;5.20;;
29688;SDS011;16600;47.444;8.334;2023-07-31T00:46:42;12.25;;;4.90;;
29688;SDS011;16600;47.444;8.334;2023-07-31T00:51:34;7.05;;;4.07;;
29688;SDS011;16600;47.444;8.334;2023-07-31T00:54:00;4.85;;;3.90;;
29688;SDS011;16600;47.444;8.334;2023-07-31T00:56:28;8.20;;;3.75;;
29688;SDS011;16600;47.444;8.334;2023-07-31T00:58:54;5.30;;;4.03;;
29688;SDS011;16600;47.444;8.334;2023-07-31T01:01:23;10.45;;;3.63;;
29688;SDS011;16600;47.444;8.334;2023-07-31T01:06:25;10.50;;;4.00;;
29688;SDS011;16600;47.444;8.334;2023-07-31T01:09:03;8.35;;;4.05;;
29688;SDS011;16600;47.444;8.334;2023-07-31T01:11:38;5.75;;;3.30;;
29688;SDS011;16600;47.444;8.334;2023-07-31T01:14:08;5.97;;;3.70;;
29688;SDS011;16600;47.444;8.334;2023-07-31T01:16:35;5.85;;;3.60;;
29688;SDS011;16600;47.444;8.334;2023-07-31T01:26:23;5.80;;;3.55;;
29688;SDS011;16600;47.444;8.334;2023-07-31T01:33:44;5.63;;;3.15;;
29688;SDS011;16600;47.444;8.334;2023-07-31T01:36:10;6.18;;;3.60;;
29688;SDS011;16600;47.444;8.334;2023-07-31T01:38:36;7.05;;;3.60;;
29688;SDS011;16600;47.444;8.334;2023-07-31T01:43:27;7.88;;;3.38;;
29688;SDS011;16600;47.444;8.334;2023-07-31T01:48:18;11.38;;;3.75;;
29688;SDS011;16600;47.444;8.334;2023-07-31T01:53:09;6.45;;;3.45;;
29688;SDS011;16600;47.444;8.334;2023-07-31T01:58:00;8.55;;;3.58;;
29688;SDS011;16600;47.444;8.334;2023-07-31T02:02:51;6.15;;;3.75;;
29688;SDS011;16600;47.444;8.334;2023-07-31T02:05:18;4.70;;;3.10;;
29688;SDS011;16600;47.444;8.334;2023-07-31T02:10:09;7.95;;;4.35;;
29688;SDS011;16600;47.444;8.334;2023-07-31T02:15:01;10.00;;;3.75;;
29688;SDS011;16600;47.444;8.334;2023-07-31T02:19:52;6.45;;;4.32;;
29688;SDS011;16600;47.444;8.334;2023-07-31T02:24:43;4.45;;;3.85;;
29688;SDS011;16600;47.444;8.334;2023-07-31T02:29:34;6.55;;;4.63;;
29688;SDS011;16600;47.444;8.334;2023-07-31T02:32:00;6.65;;;5.60;;
29688;SDS011;16600;47.444;8.334;2023-07-31T02:36:52;15.77;;;5.03;;
29688;SDS011;16600;47.444;8.334;2023-07-31T02:41:43;10.52;;;5.45;;
29688;SDS011;16600;47.444;8.334;2023-07-31T02:46:33;14.95;;;5.18;;
29688;SDS011;16600;47.444;8.334;2023-07-31T02:48:59;11.15;;;6.20;;
29688;SDS011;16600;47.444;8.334;2023-07-31T02:53:50;8.73;;;4.93;;
29688;SDS011;16600;47.444;8.334;2023-07-31T02:58:41;9.95;;;4.78;;
29688;SDS011;16600;47.444;8.334;2023-07-31T03:03:32;7.05;;;3.97;;
29688;SDS011;16600;47.444;8.334;2023-07-31T03:05:58;8.52;;;3.92;;
29688;SDS011;16600;47.444;8.334;2023-07-31T03:10:49;5.53;;;3.40;;
29688;SDS011;16600;47.444;8.334;2023-07-31T03:13:14;8.88;;;3.72;;
29688;SDS011;16600;47.444;8.334;2023-07-31T03:18:05;8.57;;;3.70;;
29688;SDS011;16600;47.444;8.334;2023-07-31T03:22:57;5.03;;;4.30;;
29688;SDS011;16600;47.444;8.334;2023-07-31T03:27:49;5.73;;;4.73;;
29688;SDS011;16600;47.444;8.334;2023-07-31T03:32:40;6.05;;;4.57;;
29688;SDS011;16600;47.444;8.334;2023-07-31T03:37:31;15.40;;;5.13;;
29688;SDS011;16600;47.444;8.334;2023-07-31T03:42:22;12.38;;;6.90;;
29688;SDS011;16600;47.444;8.334;2023-07-31T03:44:49;10.40;;;5.82;;
29688;SDS011;16600;47.444;8.334;2023-07-31T03:47:16;15.98;;;5.97;;
29688;SDS011;16600;47.444;8.334;2023-07-31T03:52:06;6.38;;;4.25;;
29688;SDS011;16600;47.444;8.334;2023-07-31T03:56:58;7.65;;;4.00;;
29688;SDS011;16600;47.444;8.334;2023-07-31T03:59:24;5.78;;;4.40;;
29688;SDS011;16600;47.444;8.334;2023-07-31T04:03:02;9.33;;;4.60;;
29688;SDS011;16600;47.444;8.334;2023-07-31T04:07:53;6.53;;;4.00;;
29688;SDS011;16600;47.444;8.334;2023-07-31T04:12:43;6.43;;;3.30;;
29688;SDS011;16600;47.444;8.334;2023-07-31T04:17:34;6.43;;;4.07;;
29688;SDS011;16600;47.444;8.334;2023-07-31T04:22:25;15.20;;;4.60;;
29688;SDS011;16600;47.444;8.334;2023-07-31T04:27:16;5.93;;;3.45;;
29688;SDS011;16600;47.444;8.334;2023-07-31T04:32:09;5.40;;;4.20;;
29688;SDS011;16600;47.444;8.334;2023-07-31T04:37:00;6.03;;;3.40;;
29688;SDS011;16600;47.444;8.334;2023-07-31T04:41:51;4.15;;;3.15;;
29688;SDS011;16600;47.444;8.334;2023-07-31T04:46:42;5.57;;;3.10;;
29688;SDS011;16600;47.444;8.334;2023-07-31T04:51:33;11.23;;;3.80;;
29688;SDS011;16600;47.444;8.334;2023-07-31T04:56:24;12.55;;;3.70;;
29688;SDS011;16600;47.444;8.334;2023-07-31T05:01:14;3.60;;;2.75;;
29688;SDS011;16600;47.444;8.334;2023-07-31T05:06:05;5.68;;;2.90;;
29688;SDS011;16600;47.444;8.334;2023-07-31T05:10:56;7.65;;;3.85;;
29688;SDS011;16600;47.444;8.334;2023-07-31T05:15:47;5.82;;;3.38;;
29688;SDS011;16600;47.444;8.334;2023-07-31T05:18:14;6.53;;;3.60;;
29688;SDS011;16600;47.444;8.334;2023-07-31T05:23:05;13.95;;;3.25;;
29688;SDS011;16600;47.444;8.334;2023-07-31T05:27:56;5.30;;;3.08;;
29688;SDS011;16600;47.444;8.334;2023-07-31T05:32:47;4.57;;;3.10;;
29688;SDS011;16600;47.444;8.334;2023-07-31T05:37:38;4.53;;;2.80;;
29688;SDS011;16600;47.444;8.334;2023-07-31T05:42:29;8.95;;;3.20;;
29688;SDS011;16600;47.444;8.334;2023-07-31T05:47:20;7.95;;;3.03;;
29688;SDS011;16600;47.444;8.334;2023-07-31T05:49:46;6.07;;;2.58;;
29688;SDS011;16600;47.444;8.334;2023-07-31T05:54:37;6.40;;;2.95;;
29688;SDS011;16600;47.444;8.334;2023-07-31T05:57:03;7.88;;;3.17;;
29688;SDS011;16600;47.444;8.334;2023-07-31T05:59:28;10.57;;;3.15;;
29688;SDS011;16600;47.444;8.334;2023-07-31T06:01:54;7.63;;;3.13;;
29688;SDS011;16600;47.444;8.334;2023-07-31T06:04:19;7.15;;;3.28;;
29688;SDS011;16600;47.444;8.334;2023-07-31T06:09:10;5.82;;;2.95;;
29688;SDS011;16600;47.444;8.334;2023-07-31T06:11:36;7.22;;;3.63;;
29688;SDS011;16600;47.444;8.334;2023-07-31T06:16:27;4.50;;;3.13;;
29688;SDS011;16600;47.444;8.334;2023-07-31T06:21:18;10.02;;;3.58;;
29688;SDS011;16600;47.444;8.334;2023-07-31T06:23:44;5.63;;;3.10;;
29688;SDS011;16600;47.444;8.334;2023-07-31T06:26:09;8.00;;;3.50;;
29688;SDS011;16600;47.444;8.334;2023-07-31T06:31:00;10.10;;;3.67;;
29688;SDS011;16600;47.444;8.334;2023-07-31T06:35:51;4.18;;;3.22;;
29688;SDS011;16600;47.444;8.334;2023-07-31T06:38:24;5.82;;;3.53;;
29688;SDS011;16600;47.444;8.334;2023-07-31T06:40:49;5.13;;;3.35;;
29688;SDS011;16600;47.444;8.334;2023-07-31T06:43:15;7.22;;;3.30;;
29688;SDS011;16600;47.444;8.334;2023-07-31T06:45:40;5.28;;;3.17;;
29688;SDS011;16600;47.444;8.334;2023-07-31T06:48:06;4.97;;;2.80;;
29688;SDS011;16600;47.444;8.334;2023-07-31T06:50:32;4.18;;;2.38;;
29688;SDS011;16600;47.444;8.334;2023-07-31T06:52:57;2.92;;;2.25;;
29688;SDS011;16600;47.444;8.334;2023-07-31T06:55:23;5.05;;;2.00;;
29688;SDS011;16600;47.444;8.334;2023-07-31T06:57:49;3.75;;;2.28;;
29688;SDS011;16600;47.444;8.334;2023-07-31T07:00:15;3.17;;;2.25;;
29688;SDS011;16600;47.444;8.334;2023-07-31T07:02:41;5.30;;;2.15;;
29688;SDS011;16600;47.444;8.334;2023-07-31T07:05:06;4.70;;;2.55;;
29688;SDS011;16600;47.444;8.334;2023-07-31T07:07:32;2.17;;;1.73;;
29688;SDS011;16600;47.444;8.334;2023-07-31T07:09:58;2.70;;;2.08;;
29688;SDS011;16600;47.444;8.334;2023-07-31T07:12:25;3.40;;;2.00;;
29688;SDS011;16600;47.444;8.334;2023-07-31T07:14:50;8.63;;;2.08;;
29688;SDS011;16600;47.444;8.334;2023-07-31T07:17:18;7.10;;;2.20;;
29688;SDS011;16600;47.444;8.334;2023-07-31T07:19:44;5.40;;;2.20;;
29688;SDS011;16600;47.444;8.334;2023-07-31T07:22:11;2.92;;;1.77;;
29688;SDS011;16600;47.444;8.334;2023-07-31T07:24:36;3.80;;;2.20;;
29688;SDS011;16600;47.444;8.334;2023-07-31T07:27:02;2.83;;;1.80;;
29688;SDS011;16600;47.444;8.334;2023-07-31T07:29:27;11.60;;;1.95;;
29688;SDS011;16600;47.444;8.334;2023-07-31T07:31:53;2.60;;;2.00;;
29688;SDS011;16600;47.444;8.334;2023-07-31T07:34:18;3.88;;;1.88;;
29688;SDS011;16600;47.444;8.334;2023-07-31T07:36:44;2.22;;;1.77;;
29688;SDS011;16600;47.444;8.334;2023-07-31T07:39:10;6.00;;;1.38;;
29688;SDS011;16600;47.444;8.334;2023-07-31T07:41:35;3.47;;;1.75;;
29688;SDS011;16600;47.444;8.334;2023-07-31T07:44:01;3.15;;;1.77;;
29688;SDS011;16600;47.444;8.334;2023-07-31T07:46:26;2.65;;;1.75;;
29688;SDS011;16600;47.444;8.334;2023-07-31T07:48:52;2.60;;;1.42;;
29688;SDS011;16600;47.444;8.334;2023-07-31T07:51:17;5.53;;;1.75;;
29688;SDS011;16600;47.444;8.334;2023-07-31T07:53:43;4.00;;;1.92;;
29688;SDS011;16600;47.444;8.334;2023-07-31T07:56:08;2.83;;;1.48;;
29688;SDS011;16600;47.444;8.334;2023-07-31T07:58:34;2.90;;;1.70;;
29688;SDS011;16600;47.444;8.334;2023-07-31T08:00:59;2.05;;;1.63;;
29688;SDS011;16600;47.444;8.334;2023-07-31T08:03:25;2.30;;;1.42;;
29688;SDS011;16600;47.444;8.334;2023-07-31T08:05:51;2.30;;;1.55;;
29688;SDS011;16600;47.444;8.334;2023-07-31T08:08:16;1.90;;;1.45;;
29688;SDS011;16600;47.444;8.334;2023-07-31T08:10:43;2.42;;;1.67;;
29688;SDS011;16600;47.444;8.334;2023-07-31T08:13:11;1.90;;;1.65;;
29688;SDS011;16600;47.444;8.334;2023-07-31T08:15:37;3.80;;;1.75;;
29688;SDS011;16600;47.444;8.334;2023-07-31T08:18:03;1.75;;;1.42;;
29688;SDS011;16600;47.444;8.334;2023-07-31T08:20:28;5.90;;;1.77;;
29688;SDS011;16600;47.444;8.334;2023-07-31T08:22:54;2.63;;;1.95;;
29688;SDS011;16600;47.444;8.334;2023-07-31T08:25:19;6.55;;;2.40;;
29688;SDS011;16600;47.444;8.334;2023-07-31T08:27:45;2.63;;;1.80;;
29688;SDS011;16600;47.444;8.334;2023-07-31T08:30:11;5.57;;;1.92;;
29688;SDS011;16600;47.444;8.334;2023-07-31T08:32:37;6.80;;;2.13;;
29688;SDS011;16600;47.444;8.334;2023-07-31T08:35:02;4.03;;;1.98;;
29688;SDS011;16600;47.444;8.334;2023-07-31T08:37:28;2.50;;;1.60;;
29688;SDS011;16600;47.444;8.334;2023-07-31T08:39:53;3.97;;;1.52;;
29688;SDS011;16600;47.444;8.334;2023-07-31T08:42:20;1.92;;;1.33;;
29688;SDS011;16600;47.444;8.334;2023-07-31T08:44:46;4.70;;;1.90;;
29688;SDS011;16600;47.444;8.334;2023-07-31T08:47:12;6.68;;;1.65;;
29688;SDS011;16600;47.444;8.334;2023-07-31T08:49:37;5.32;;;2.05;;
29688;SDS011;16600;47.444;8.334;2023-07-31T08:52:03;1.67;;;1.30;;
29688;SDS011;16600;47.444;8.334;2023-07-31T08:54:29;6.13;;;1.83;;
29688;SDS011;16600;47.444;8.334;2023-07-31T08:56:56;2.30;;;1.45;;
29688;SDS011;16600;47.444;8.334;2023-07-31T08:59:22;4.25;;;1.75;;
29688;SDS011;16600;47.444;8.334;2023-07-31T09:01:49;13.13;;;1.85;;
29688;SDS011;16600;47.444;8.334;2023-07-31T09:04:15;2.70;;;1.67;;
29688;SDS011;16600;47.444;8.334;2023-07-31T09:06:42;7.70;;;1.92;;
29688;SDS011;16600;47.444;8.334;2023-07-31T09:09:08;5.28;;;2.08;;
29688;SDS011;16600;47.444;8.334;2023-07-31T09:11:34;4.25;;;1.90;;
29688;SDS011;16600;47.444;8.334;2023-07-31T09:14:00;2.75;;;1.88;;
29688;SDS011;16600;47.444;8.334;2023-07-31T09:16:28;2.85;;;1.77;;
29688;SDS011;16600;47.444;8.334;2023-07-31T09:18:57;4.75;;;1.85;;
29688;SDS011;16600;47.444;8.334;2023-07-31T09:21:24;6.90;;;1.90;;
29688;SDS011;16600;47.444;8.334;2023-07-31T09:23:51;3.10;;;1.50;;
29688;SDS011;16600;47.444;8.334;2023-07-31T09:26:34;2.75;;;1.55;;
29688;SDS011;16600;47.444;8.334;2023-07-31T09:29:01;5.25;;;1.65;;
29688;SDS011;16600;47.444;8.334;2023-07-31T09:34:01;3.60;;;1.43;;
29688;SDS011;16600;47.444;8.334;2023-07-31T09:36:28;2.28;;;1.50;;
29688;SDS011;16600;47.444;8.334;2023-07-31T09:38:54;3.88;;;1.70;;
29688;SDS011;16600;47.444;8.334;2023-07-31T09:41:20;5.10;;;1.70;;
29688;SDS011;16600;47.444;8.334;2023-07-31T09:43:53;2.22;;;1.65;;
29688;SDS011;16600;47.444;8.334;2023-07-31T09:46:19;5.28;;;2.08;;
29688;SDS011;16600;47.444;8.334;2023-07-31T09:48:45;3.08;;;2.28;;
29688;SDS011;16600;47.444;8.334;2023-07-31T09:51:11;4.10;;;2.17;;
29688;SDS011;16600;47.444;8.334;2023-07-31T09:53:36;2.45;;;1.55;;
29688;SDS011;16600;47.444;8.334;2023-07-31T09:56:02;2.63;;;1.67;;
29688;SDS011;16600;47.444;8.334;2023-07-31T09:58:28;4.47;;;2.00;;
29688;SDS011;16600;47.444;8.334;2023-07-31T10:03:04;2.10;;;1.70;;
29688;SDS011;16600;47.444;8.334;2023-07-31T10:05:43;2.40;;;1.42;;
29688;SDS011;16600;47.444;8.334;2023-07-31T10:08:10;2.88;;;1.70;;
29688;SDS011;16600;47.444;8.334;2023-07-31T10:10:37;6.13;;;1.55;;
29688;SDS011;16600;47.444;8.334;2023-07-31T10:13:06;2.53;;;1.67;;
29688;SDS011;16600;47.444;8.334;2023-07-31T10:15:32;5.55;;;1.95;;
29688;SDS011;16600;47.444;8.334;2023-07-31T10:17:58;1.63;;;1.45;;
29688;SDS011;16600;47.444;8.334;2023-07-31T10:20:24;4.18;;;1.77;;
29688;SDS011;16600;47.444;8.334;2023-07-31T10:22:52;4.50;;;1.60;;
29688;SDS011;16600;47.444;8.334;2023-07-31T10:25:19;2.08;;;1.65;;
29688;SDS011;16600;47.444;8.334;2023-07-31T10:27:44;2.15;;;1.65;;
29688;SDS011;16600;47.444;8.334;2023-07-31T10:30:13;2.33;;;1.60;;
29688;SDS011;16600;47.444;8.334;2023-07-31T10:32:40;2.90;;;1.65;;
29688;SDS011;16600;47.444;8.334;2023-07-31T10:35:07;3.00;;;1.95;;
29688;SDS011;16600;47.444;8.334;2023-07-31T10:37:36;5.70;;;2.20;;
29688;SDS011;16600;47.444;8.334;2023-07-31T10:42:37;3.33;;;1.85;;
29688;SDS011;16600;47.444;8.334;2023-07-31T10:45:06;2.35;;;2.10;;
29688;SDS011;16600;47.444;8.334;2023-07-31T10:47:38;3.80;;;1.63;;
29688;SDS011;16600;47.444;8.334;2023-07-31T10:50:11;2.08;;;1.40;;
29688;SDS011;16600;47.444;8.334;2023-07-31T10:52:37;11.85;;;1.88;;
29688;SDS011;16600;47.444;8.334;2023-07-31T10:57:41;3.08;;;1.83;;
29688;SDS011;16600;47.444;8.334;2023-07-31T11:00:24;3.22;;;1.75;;
29688;SDS011;16600;47.444;8.334;2023-07-31T11:02:57;3.33;;;2.22;;
29688;SDS011;16600;47.444;8.334;2023-07-31T11:05:45;3.40;;;1.88;;
29688;SDS011;16600;47.444;8.334;2023-07-31T11:10:37;2.97;;;1.60;;
29688;SDS011;16600;47.444;8.334;2023-07-31T11:13:06;4.10;;;1.60;;
29688;SDS011;16600;47.444;8.334;2023-07-31T11:15:32;5.72;;;1.65;;
29688;SDS011;16600;47.444;8.334;2023-07-31T11:17:59;4.72;;;2.47;;
29688;SDS011;16600;47.444;8.334;2023-07-31T11:20:27;2.58;;;1.77;;
29688;SDS011;16600;47.444;8.334;2023-07-31T11:22:54;4.75;;;1.92;;
29688;SDS011;16600;47.444;8.334;2023-07-31T11:25:20;7.25;;;2.40;;
29688;SDS011;16600;47.444;8.334;2023-07-31T11:27:45;6.93;;;2.42;;
29688;SDS011;16600;47.444;8.334;2023-07-31T11:30:11;3.15;;;1.98;;
29688;SDS011;16600;47.444;8.334;2023-07-31T11:32:37;5.78;;;2.13;;
29688;SDS011;16600;47.444;8.334;2023-07-31T11:35:02;2.42;;;1.52;;
29688;SDS011;16600;47.444;8.334;2023-07-31T11:37:42;2.65;;;1.90;;
29688;SDS011;16600;47.444;8.334;2023-07-31T11:40:08;3.20;;;1.90;;
29688;SDS011;16600;47.444;8.334;2023-07-31T11:42:37;2.75;;;1.80;;
29688;SDS011;16600;47.444;8.334;2023-07-31T11:45:06;4.93;;;2.00;;
29688;SDS011;16600;47.444;8.334;2023-07-31T11:47:32;4.70;;;1.92;;
29688;SDS011;16600;47.444;8.334;2023-07-31T11:49:59;8.18;;;2.00;;
29688;SDS011;16600;47.444;8.334;2023-07-31T11:52:26;3.28;;;1.88;;
29688;SDS011;16600;47.444;8.334;2023-07-31T11:54:51;2.40;;;1.95;;
29688;SDS011;16600;47.444;8.334;2023-07-31T11:57:17;4.05;;;1.63;;
29688;SDS011;16600;47.444;8.334;2023-07-31T11:59:43;3.85;;;2.03;;
29688;SDS011;16600;47.444;8.334;2023-07-31T12:02:09;4.32;;;2.20;;
29688;SDS011;16600;47.444;8.334;2023-07-31T12:04:35;3.80;;;1.92;;
29688;SDS011;16600;47.444;8.334;2023-07-31T12:07:01;2.33;;;1.48;;
29688;SDS011;16600;47.444;8.334;2023-07-31T12:09:26;5.75;;;2.10;;
29688;SDS011;16600;47.444;8.334;2023-07-31T12:11:52;3.90;;;2.00;;
29688;SDS011;16600;47.444;8.334;2023-07-31T12:14:21;6.05;;;2.20;;
29688;SDS011;16600;47.444;8.334;2023-07-31T12:16:54;3.63;;;1.85;;
29688;SDS011;16600;47.444;8.334;2023-07-31T12:19:19;5.45;;;2.63;;
29688;SDS011;16600;47.444;8.334;2023-07-31T12:21:45;6.93;;;2.10;;
29688;SDS011;16600;47.444;8.334;2023-07-31T12:24:10;6.45;;;1.80;;
29688;SDS011;16600;47.444;8.334;2023-07-31T12:26:36;3.10;;;1.98;;
29688;SDS011;16600;47.444;8.334;2023-07-31T12:29:02;2.38;;;1.73;;
29688;SDS011;16600;47.444;8.334;2023-07-31T12:31:27;3.42;;;2.05;;
29688;SDS011;16600;47.444;8.334;2023-07-31T12:33:54;4.25;;;2.38;;
29688;SDS011;16600;47.444;8.334;2023-07-31T12:36:21;2.35;;;1.58;;
29688;SDS011;16600;47.444;8.334;2023-07-31T12:38:47;5.78;;;2.05;;
29688;SDS011;16600;47.444;8.334;2023-07-31T12:41:12;3.17;;;2.22;;
29688;SDS011;16600;47.444;8.334;2023-07-31T12:43:39;4.78;;;2.20;;
29688;SDS011;16600;47.444;8.334;2023-07-31T12:46:05;3.13;;;1.67;;
29688;SDS011;16600;47.444;8.334;2023-07-31T12:48:31;1.65;;;1.55;;
29688;SDS011;16600;47.444;8.334;2023-07-31T12:50:56;2.28;;;1.98;;
29688;SDS011;16600;47.444;8.334;2023-07-31T12:53:22;2.05;;;1.40;;
29688;SDS011;16600;47.444;8.334;2023-07-31T12:55:47;2.83;;;1.58;;
29688;SDS011;16600;47.444;8.334;2023-07-31T12:58:13;5.38;;;1.80;;
29688;SDS011;16600;47.444;8.334;2023-07-31T13:00:38;2.28;;;2.00;;
29688;SDS011;16600;47.444;8.334;2023-07-31T13:03:04;3.97;;;2.20;;
29688;SDS011;16600;47.444;8.334;2023-07-31T13:05:30;13.77;;;2.30;;
29688;SDS011;16600;47.444;8.334;2023-07-31T13:07:56;3.10;;;2.08;;
29688;SDS011;16600;47.444;8.334;2023-07-31T13:10:22;5.68;;;1.40;;
29688;SDS011;16600;47.444;8.334;2023-07-31T13:12:47;2.83;;;1.75;;
29688;SDS011;16600;47.444;8.334;2023-07-31T13:15:13;2.20;;;1.70;;
29688;SDS011;16600;47.444;8.334;2023-07-31T13:17:39;3.83;;;2.00;;
29688;SDS011;16600;47.444;8.334;2023-07-31T13:20:04;2.67;;;1.70;;
29688;SDS011;16600;47.444;8.334;2023-07-31T13:22:30;2.60;;;1.73;;
29688;SDS011;16600;47.444;8.334;2023-07-31T13:24:56;7.43;;;2.38;;
29688;SDS011;16600;47.444;8.334;2023-07-31T13:27:21;8.52;;;2.10;;
29688;SDS011;16600;47.444;8.334;2023-07-31T13:29:47;4.05;;;1.70;;
29688;SDS011;16600;47.444;8.334;2023-07-31T13:32:14;2.08;;;1.83;;
29688;SDS011;16600;47.444;8.334;2023-07-31T13:34:39;1.95;;;1.75;;
29688;SDS011;16600;47.444;8.334;2023-07-31T13:37:05;4.35;;;1.98;;
29688;SDS011;16600;47.444;8.334;2023-07-31T13:39:34;3.53;;;1.67;;
29688;SDS011;16600;47.444;8.334;2023-07-31T13:41:59;3.78;;;1.75;;
29688;SDS011;16600;47.444;8.334;2023-07-31T13:44:28;3.97;;;1.58;;
29688;SDS011;16600;47.444;8.334;2023-07-31T13:46:53;4.93;;;1.80;;
29688;SDS011;16600;47.444;8.334;2023-07-31T13:49:19;3.05;;;2.08;;
29688;SDS011;16600;47.444;8.334;2023-07-31T13:51:45;3.50;;;1.90;;
29688;SDS011;16600;47.444;8.334;2023-07-31T13:54:11;2.00;;;1.70;;
29688;SDS011;16600;47.444;8.334;2023-07-31T13:56:37;5.30;;;2.30;;
29688;SDS011;16600;47.444;8.334;2023-07-31T13:59:03;4.18;;;2.45;;
29688;SDS011;16600;47.444;8.334;2023-07-31T14:01:28;6.22;;;2.90;;
29688;SDS011;16600;47.444;8.334;2023-07-31T14:03:54;3.75;;;2.03;;
29688;SDS011;16600;47.444;8.334;2023-07-31T14:06:19;4.82;;;2.75;;
29688;SDS011;16600;47.444;8.334;2023-07-31T14:08:45;5.35;;;2.72;;
29688;SDS011;16600;47.444;8.334;2023-07-31T14:11:11;5.75;;;2.58;;
29688;SDS011;16600;47.444;8.334;2023-07-31T14:13:36;5.57;;;2.30;;
29688;SDS011;16600;47.444;8.334;2023-07-31T14:16:02;1.88;;;1.60;;
29688;SDS011;16600;47.444;8.334;2023-07-31T14:18:28;4.05;;;2.75;;
29688;SDS011;16600;47.444;8.334;2023-07-31T14:20:53;2.88;;;2.33;;
29688;SDS011;16600;47.444;8.334;2023-07-31T14:23:19;5.10;;;2.60;;
29688;SDS011;16600;47.444;8.334;2023-07-31T14:25:45;7.30;;;2.50;;
29688;SDS011;16600;47.444;8.334;2023-07-31T14:28:11;4.43;;;2.67;;
29688;SDS011;16600;47.444;8.334;2023-07-31T14:30:36;3.88;;;2.20;;
29688;SDS011;16600;47.444;8.334;2023-07-31T14:33:03;4.13;;;2.70;;
29688;SDS011;16600;47.444;8.334;2023-07-31T14:35:28;3.42;;;2.25;;
29688;SDS011;16600;47.444;8.334;2023-07-31T14:37:58;5.28;;;3.17;;
29688;SDS011;16600;47.444;8.334;2023-07-31T14:40:23;3.38;;;2.25;;
29688;SDS011;16600;47.444;8.334;2023-07-31T14:42:49;4.65;;;2.55;;
29688;SDS011;16600;47.444;8.334;2023-07-31T14:45:14;4.70;;;2.80;;
29688;SDS011;16600;47.444;8.334;2023-07-31T14:47:40;4.63;;;2.53;;
29688;SDS011;16600;47.444;8.334;2023-07-31T14:50:05;6.25;;;2.28;;
29688;SDS011;16600;47.444;8.334;2023-07-31T14:52:31;6.13;;;2.35;;
29688;SDS011;16600;47.444;8.334;2023-07-31T14:54:57;2.17;;;1.95;;
29688;SDS011;16600;47.444;8.334;2023-07-31T14:57:22;5.57;;;2.47;;
29688;SDS011;16600;47.444;8.334;2023-07-31T14:59:48;4.55;;;2.70;;
29688;SDS011;16600;47.444;8.334;2023-07-31T15:02:14;3.45;;;2.60;;
29688;SDS011;16600;47.444;8.334;2023-07-31T15:04:39;7.15;;;3.00;;
29688;SDS011;16600;47.444;8.334;2023-07-31T15:07:05;6.65;;;2.72;;
29688;SDS011;16600;47.444;8.334;2023-07-31T15:09:31;6.05;;;3.20;;
29688;SDS011;16600;47.444;8.334;2023-07-31T15:11:56;4.65;;;2.60;;
29688;SDS011;16600;47.444;8.334;2023-07-31T15:14:22;4.78;;;2.65;;
29688;SDS011;16600;47.444;8.334;2023-07-31T15:16:48;3.70;;;3.05;;
29688;SDS011;16600;47.444;8.334;2023-07-31T15:19:14;6.00;;;3.83;;
29688;SDS011;16600;47.444;8.334;2023-07-31T15:21:39;5.07;;;3.38;;
29688;SDS011;16600;47.444;8.334;2023-07-31T15:24:05;5.80;;;2.90;;
29688;SDS011;16600;47.444;8.334;2023-07-31T15:26:30;5.47;;;2.80;;
29688;SDS011;16600;47.444;8.334;2023-07-31T15:29:00;12.88;;;3.28;;
29688;SDS011;16600;47.444;8.334;2023-07-31T15:31:26;8.55;;;3.20;;
29688;SDS011;16600;47.444;8.334;2023-07-31T15:33:52;3.58;;;2.58;;
29688;SDS011;16600;47.444;8.334;2023-07-31T15:36:18;4.25;;;2.63;;
29688;SDS011;16600;47.444;8.334;2023-07-31T15:38:44;7.97;;;2.90;;
29688;SDS011;16600;47.444;8.334;2023-07-31T15:41:09;3.55;;;2.33;;
29688;SDS011;16600;47.444;8.334;2023-07-31T15:43:35;3.38;;;2.38;;
29688;SDS011;16600;47.444;8.334;2023-07-31T15:46:00;11.80;;;2.88;;
29688;SDS011;16600;47.444;8.334;2023-07-31T15:48:26;2.97;;;2.30;;
29688;SDS011;16600;47.444;8.334;2023-07-31T15:50:52;3.72;;;2.00;;
29688;SDS011;16600;47.444;8.334;2023-07-31T15:53:18;5.35;;;2.40;;
29688;SDS011;16600;47.444;8.334;2023-07-31T15:55:43;12.63;;;2.97;;
29688;SDS011;16600;47.444;8.334;2023-07-31T15:58:09;4.50;;;2.58;;
29688;SDS011;16600;47.444;8.334;2023-07-31T16:34:53;8.83;;;2.23;;
29688;SDS011;16600;47.444;8.334;2023-07-31T16:37:19;5.03;;;2.25;;
29688;SDS011;16600;47.444;8.334;2023-07-31T16:39:45;3.50;;;2.08;;
29688;SDS011;16600;47.444;8.334;2023-07-31T16:42:14;3.28;;;2.42;;
29688;SDS011;16600;47.444;8.334;2023-07-31T16:44:39;12.88;;;2.53;;
29688;SDS011;16600;47.444;8.334;2023-07-31T16:47:05;5.47;;;2.40;;
29688;SDS011;16600;47.444;8.334;2023-07-31T16:49:31;3.33;;;2.08;;
29688;SDS011;16600;47.444;8.334;2023-07-31T16:51:56;2.97;;;2.10;;
29688;SDS011;16600;47.444;8.334;2023-07-31T16:54:22;4.00;;;2.80;;
29688;SDS011;16600;47.444;8.334;2023-07-31T16:56:47;3.13;;;2.55;;
29688;SDS011;16600;47.444;8.334;2023-07-31T16:59:15;5.68;;;2.85;;
29688;SDS011;16600;47.444;8.334;2023-07-31T17:01:40;4.35;;;3.13;;
29688;SDS011;16600;47.444;8.334;2023-07-31T17:04:06;8.48;;;2.85;;
29688;SDS011;16600;47.444;8.334;2023-07-31T17:06:32;5.70;;;2.65;;
29688;SDS011;16600;47.444;8.334;2023-07-31T17:08:57;5.93;;;3.38;;
29688;SDS011;16600;47.444;8.334;2023-07-31T17:11:23;3.65;;;2.78;;
29688;SDS011;16600;47.444;8.334;2023-07-31T17:13:50;4.63;;;3.08;;
29688;SDS011;16600;47.444;8.334;2023-07-31T17:16:16;3.47;;;2.95;;
29688;SDS011;16600;47.444;8.334;2023-07-31T17:18:42;6.72;;;3.17;;
29688;SDS011;16600;47.444;8.334;2023-07-31T17:21:08;10.35;;;3.65;;
29688;SDS011;16600;47.444;8.334;2023-07-31T17:23:33;17.80;;;3.72;;
29688;SDS011;16600;47.444;8.334;2023-07-31T17:25:59;4.75;;;3.10;;
29688;SDS011;16600;47.444;8.334;2023-07-31T17:28:24;6.25;;;3.20;;
29688;SDS011;16600;47.444;8.334;2023-07-31T17:30:50;8.07;;;3.10;;
29688;SDS011;16600;47.444;8.334;2023-07-31T17:33:16;5.10;;;2.60;;
29688;SDS011;16600;47.444;8.334;2023-07-31T17:35:42;7.70;;;3.08;;
29688;SDS011;16600;47.444;8.334;2023-07-31T17:38:08;5.85;;;3.17;;
29688;SDS011;16600;47.444;8.334;2023-07-31T17:40:34;5.13;;;2.85;;
29688;SDS011;16600;47.444;8.334;2023-07-31T17:42:59;3.80;;;2.80;;
29688;SDS011;16600;47.444;8.334;2023-07-31T17:45:25;3.92;;;2.75;;
29688;SDS011;16600;47.444;8.334;2023-07-31T17:47:52;3.22;;;2.65;;
29688;SDS011;16600;47.444;8.334;2023-07-31T17:50:18;4.55;;;3.03;;
29688;SDS011;16600;47.444;8.334;2023-07-31T17:52:44;4.75;;;2.78;;
29688;SDS011;16600;47.444;8.334;2023-07-31T17:55:09;2.67;;;2.45;;
29688;SDS011;16600;47.444;8.334;2023-07-31T17:57:35;4.97;;;2.85;;